Погода Консейсан-ду-Арагуаяна 2 недели

Пара, Бразилия

13 - 25 июня
  • 13июня
    Сегодня
    +22°
    +35°
    Облачно с прояснениями
    ВремяПогодаТемператураВлажностьДавлениеВетер, м/сВероятность осадков
    00:00Ясно и безоблачно+22°C64 %750 мм2.3 м/с5 %
    03:00Облачно с прояснениями+22°C66 %749 мм0.7 м/с5 %
    06:00Ясно и безоблачно+20°C76 %750 мм1.8 м/с5 %
    09:00Ясно и безоблачно+26°C49 %751 мм1.4 м/с5 %
    12:00Практически безоблачно+31°C38 %751 мм4.3 м/с5 %
    15:00Облачно с прояснениями+34°C33 %748 мм3.4 м/с5 %
    18:00Ясно и безоблачно+30°C47 %748 мм1.8 м/с5 %
    21:00Ясно и безоблачно+27°C56 %749 мм1.3 м/с5 %
  • 14июня
    Пятница
    +22°
    +36°
    Ясно и безоблачно
    ВремяПогодаТемператураВлажностьДавлениеВетер, м/сВероятность осадков
    00:00Ясно и безоблачно+23°C70 %750 мм1.6 м/с5 %
    03:00Ясно и безоблачно+24°C66 %749 мм1.4 м/с5 %
    06:00Ясно и безоблачно+23°C76 %749 мм1.5 м/с5 %
    09:00Ясно и безоблачно+28°C56 %752 мм1.4 м/с5 %
    12:00Ясно и безоблачно+32°C38 %751 мм4.4 м/с5 %
    15:00Ясно и безоблачно+35°C35 %748 мм3.3 м/с5 %
    18:00Ясно и безоблачно+31°C44 %748 мм1.8 м/с5 %
    21:00Ясно и безоблачно+28°C51 %749 мм1.3 м/с5 %
  • 15июня
    Суббота
    +21°
    +34°
    Ясно и безоблачно
    ВремяПогодаТемператураВлажностьДавлениеВетер, м/сВероятность осадков
    00:00Ясно и безоблачно+24°C62 %750 мм1.8 м/с5 %
    03:00Практически безоблачно+23°C71 %749 мм2.1 м/с5 %
    06:00Небольшая облачность+23°C69 %750 мм1.9 м/с5 %
    09:00Ясно и безоблачно+29°C53 %752 мм1.4 м/с5 %
    12:00Ясно и безоблачно+31°C42 %751 мм4.2 м/с5 %
    15:00Ясно и безоблачно+34°C33 %749 мм3.7 м/с5 %
    18:00Ясно и безоблачно+29°C33 %749 мм2.0 м/с5 %
    21:00Ясно и безоблачно+26°C47 %750 мм1.3 м/с5 %
  • 16июня
    Воскресенье
    +20°
    +34°
    Ясно и безоблачно
    ВремяПогодаТемператураВлажностьДавлениеВетер, м/сВероятность осадков
    00:00Ясно и безоблачно+22°C58 %750 мм1.9 м/с5 %
    03:00Ясно и безоблачно+22°C52 %748 мм2.7 м/с5 %
    06:00Ясно и безоблачно+22°C61 %749 мм2.2 м/с5 %
    09:00Ясно и безоблачно+27°C51 %751 мм1.4 м/с5 %
    12:00Ясно и безоблачно+31°C36 %750 мм4.3 м/с5 %
    15:00Ясно и безоблачно+34°C34 %748 мм3.1 м/с5 %
    18:00Ясно и безоблачно+29°C49 %748 мм2.0 м/с5 %
    21:00Ясно и безоблачно+28°C50 %749 мм1.3 м/с5 %
Мы используем cookies
Соглашаюсь